Time;durP1;ratioP1;P1;durP2;ratioP2;P2;SDS_P1;SDS_P2;PMS_P1;PMS_P2;Temp;Humidity;BMP_temperature;BMP_pressure;BME280_temperature;BME280_humidity;BME280_pressure;Samples;Min_cycle;Max_cycle;Signal;HPM_P1;HPM_P2
2022/02/09 00:02:01;;;;;;;;;;;;;;;5.07;78.02;101006.88;4935530;29;19919;-86
2022/02/09 00:04:34;;;;;;;;;;;;;;;5.08;77.95;101004.25;4936054;29;19923;-82
2022/02/09 00:07:08;;;;;;;;;;;;;;;5.12;78.25;100999.00;4935284;29;19925;-82
2022/02/09 00:09:33;;;;;;;;;;;;;;;5.16;78.33;100995.50;4935924;29;19967;-83
2022/02/09 00:14:44;;;;;;;;;;;;;;;5.17;78.49;100992.88;4935191;29;19923;-81
2022/02/09 00:20:10;;;;;;;;;;;;;;;5.19;78.66;100993.75;4935814;29;20009;-85
2022/02/09 04:40:14;;;;;;;;;;;;;;;1.81;92.50;100865.63;4944928;29;20350;-81
2022/02/09 04:50:59;;;;;;;;;;;;;;;1.47;91.31;100864.38;4943263;29;19918;-86
2022/02/09 05:23:10;;;;;;;;;;;;;;;2.84;100.00;100881.25;4944029;29;20429;-85
2022/02/09 05:25:46;;;;;;;;;;;;;;;2.77;100.00;100869.88;4944594;29;19918;-86
2022/02/09 05:28:19;;;;;;;;;;;;;;;2.90;100.00;100876.06;4943860;29;20286;-86
2022/02/09 05:30:51;;;;;;;;;;;;;;;2.96;100.00;100872.63;4944325;29;19922;-86
2022/02/09 05:33:16;;;;;;;;;;;;;;;2.95;100.00;100871.72;4927458;29;19918;-86
2022/02/09 05:35:44;;;;;;;;;;;;;;;2.87;100.00;100876.94;4943071;29;19929;-85
2022/02/09 08:48:54;;;;;;;;;;;;;;;3.32;79.65;100823.88;4949797;28;19958;-84
2022/02/09 08:51:22;;;;;;;;;;;;;;;4.73;86.14;100817.84;4954373;29;19926;-81
2022/02/09 08:53:48;;;;;;;;;;;;;;;4.32;87.75;100827.53;4953500;28;20337;-84
2022/02/09 08:56:13;;;;;;;;;;;;;;;4.00;87.77;100824.91;4952743;29;19926;-84
2022/02/09 08:58:38;;;;;;;;;;;;;;;3.91;86.77;100827.50;4954137;28;19919;-88
2022/02/09 09:01:22;;;;;;;;;;;;;;;3.83;85.56;100830.16;4953109;29;20349;-89
2022/02/09 09:03:51;;;;;;;;;;;;;;;3.80;84.26;100828.38;4952139;29;19918;-89
2022/02/09 09:06:21;;;;;;;;;;;;;;;5.05;87.75;100819.50;4936465;29;19918;-85
2022/02/09 10:02:26;;;;;;;;;;;;;;;4.11;83.34;100790.81;4956494;28;20363;-86
2022/02/09 10:32:56;;;;;;;;;;;;;;;4.29;80.58;100751.44;4955713;28;20412;-87
2022/02/09 10:35:06;;;;;;;;;;;;;;;4.29;80.76;100754.06;4948767;28;20366;-88
2022/02/09 10:37:31;;;;;;;;;;;;;;;4.28;80.54;100754.06;4956146;28;20013;-87
2022/02/09 10:40:04;;;;;;;;;;;;;;;4.33;80.43;100760.19;4956714;28;20450;-88
2022/02/09 10:42:42;;;;;;;;;;;;;;;4.35;80.42;100756.66;4956766;28;20361;-89
2022/02/09 10:45:29;;;;;;;;;;;;;;;4.34;80.31;100757.56;4956325;29;19993;-88
2022/02/09 10:47:54;;;;;;;;;;;;;;;4.39;80.31;100749.69;4939097;28;19946;-88
2022/02/09 10:50:34;;;;;;;;;;;;;;;4.41;80.25;100747.91;4956432;28;20369;-89
2022/02/09 10:53:01;;;;;;;;;;;;;;;4.40;80.24;100740.91;4954965;29;20040;-88
2022/02/09 10:55:42;;;;;;;;;;;;;;;4.45;80.17;100744.41;4938912;29;20013;-87
2022/02/09 10:58:13;;;;;;;;;;;;;;;4.48;80.19;100740.91;4955028;29;19946;-88
2022/02/09 11:00:46;;;;;;;;;;;;;;;4.48;80.22;100731.28;4953753;29;19922;-87
2022/02/09 11:03:15;;;;;;;;;;;;;;;4.50;80.04;100728.63;4939071;29;20013;-88
2022/02/09 11:05:43;;;;;;;;;;;;;;;4.50;80.18;100724.28;4956342;28;20005;-90
2022/02/09 11:08:09;;;;;;;;;;;;;;;4.57;80.12;100722.50;4954900;28;20263;-88
2022/02/09 11:10:34;;;;;;;;;;;;;;;4.57;79.91;100721.63;4954075;29;19974;-87
2022/02/09 11:12:59;;;;;;;;;;;;;;;4.60;80.28;100713.75;4955520;28;19941;-87
2022/02/09 11:15:25;;;;;;;;;;;;;;;4.62;80.29;100719.88;4954750;28;19977;-87
2022/02/09 11:17:51;;;;;;;;;;;;;;;4.64;80.34;100713.75;4955804;28;20021;-87
2022/02/09 11:20:27;;;;;;;;;;;;;;;4.64;80.44;100712.84;4955810;28;20345;-87
2022/02/09 11:22:52;;;;;;;;;;;;;;;4.68;80.81;100711.97;4954422;28;19953;-87
2022/02/09 11:25:25;;;;;;;;;;;;;;;4.68;80.85;100704.94;4952801;28;20366;-86
2022/02/09 11:28:11;;;;;;;;;;;;;;;4.70;80.88;100703.19;4953960;28;19987;-88
2022/02/09 11:30:44;;;;;;;;;;;;;;;4.72;80.83;100700.56;4954147;28;19922;-85
2022/02/09 11:35:56;;;;;;;;;;;;;;;4.74;80.73;100693.56;4955621;28;19922;-86
2022/02/09 11:38:35;;;;;;;;;;;;;;;4.75;80.71;100683.94;4955405;28;19918;-86
2022/02/09 11:41:11;;;;;;;;;;;;;;;4.76;80.60;100680.44;4955423;28;19918;-86
2022/02/09 11:43:48;;;;;;;;;;;;;;;4.76;80.38;100678.66;4954484;28;19927;-86
2022/02/09 11:46:37;;;;;;;;;;;;;;;4.81;80.28;100671.63;4954182;28;20308;-86
2022/02/09 12:00:13;;;;;;;;;;;;;;;4.88;80.80;100649.72;4973866;28;19972;-87
2022/02/09 12:11:09;;;;;;;;;;;;;;;4.96;81.55;100643.53;4974358;28;19924;-87
2022/02/09 12:13:56;;;;;;;;;;;;;;;4.98;81.68;100633.88;4974096;28;19918;-87
2022/02/09 12:16:45;;;;;;;;;;;;;;;4.97;81.67;100633.03;4972753;28;19922;-87
2022/02/09 12:19:14;;;;;;;;;;;;;;;5.03;81.68;100632.13;4973564;28;19918;-87
2022/02/09 12:21:50;;;;;;;;;;;;;;;5.02;81.71;100631.22;4973783;28;19922;-87
2022/02/09 12:24:16;;;;;;;;;;;;;;;5.05;81.82;100630.34;4956659;28;19914;-87
2022/02/09 12:26:52;;;;;;;;;;;;;;;5.06;81.62;100625.09;4974087;28;19918;-87
2022/02/09 12:29:19;;;;;;;;;;;;;;;5.09;81.53;100626.84;4973996;28;19981;-87
2022/02/09 12:31:44;;;;;;;;;;;;;;;5.11;81.54;100614.56;4972534;28;20296;-89
2022/02/09 12:34:09;;;;;;;;;;;;;;;5.13;81.71;100611.91;4973914;28;19918;-87
2022/02/09 12:36:36;;;;;;;;;;;;;;;5.15;81.75;100610.13;4973705;28;19925;-87
2022/02/09 12:39:04;;;;;;;;;;;;;;;5.15;81.82;100605.75;4956267;28;19929;-87
2022/02/09 12:41:31;;;;;;;;;;;;;;;5.19;82.07;100602.22;4973111;28;20013;-87
2022/02/09 12:43:57;;;;;;;;;;;;;;;5.19;82.20;100596.97;4973659;28;20005;-87
2022/02/09 12:46:24;;;;;;;;;;;;;;;5.21;82.34;100599.59;4972506;28;20390;-87
2022/02/09 12:48:49;;;;;;;;;;;;;;;5.23;82.30;100590.81;4955355;28;19922;-87
2022/02/09 12:51:25;;;;;;;;;;;;;;;5.31;82.48;100595.13;4973541;28;20420;-87
2022/02/09 12:53:51;;;;;;;;;;;;;;;5.44;83.29;100597.66;4971779;28;19914;-87
2022/02/09 12:56:20;;;;;;;;;;;;;;;5.54;84.30;100595.81;4973526;28;19941;-86
2022/02/09 12:58:56;;;;;;;;;;;;;;;5.57;85.11;100593.16;4973300;28;19918;-87
2022/02/09 13:01:21;;;;;;;;;;;;;;;5.54;85.84;100593.16;4971518;28;20333;-87
2022/02/09 13:03:49;;;;;;;;;;;;;;;5.52;86.47;100589.69;4973365;28;19918;-87
2022/02/09 13:06:14;;;;;;;;;;;;;;;5.42;86.78;100588.00;4973308;28;19928;-87
2022/02/09 13:08:39;;;;;;;;;;;;;;;5.34;87.10;100581.97;4973323;28;19918;-88
2022/02/09 13:11:18;;;;;;;;;;;;;;;5.17;87.21;100582.97;4955809;28;19918;-89
2022/02/09 13:13:49;;;;;;;;;;;;;;;4.93;87.63;100583.16;4971586;28;19926;-88
2022/02/09 13:16:31;;;;;;;;;;;;;;;4.77;88.44;100578.03;4971859;28;19929;-88
2022/02/09 14:11:08;;;;;;;;;;;;;;;6.68;100.00;100522.53;4972818;28;19929;-89
2022/02/09 14:19:25;;;;;;;;;;;;;;;6.83;100.00;100513.50;4972567;28;19928;-88
2022/02/09 14:51:35;;;;;;;;;;;;;;;2.43;93.60;100505.16;4975355;28;20340;-88
2022/02/09 14:56:37;;;;;;;;;;;;;;;2.24;92.44;100510.34;4975749;28;19972;-88
2022/02/09 14:59:04;;;;;;;;;;;;;;;2.12;91.66;100492.00;4974701;28;19926;-88
2022/02/09 15:01:37;;;;;;;;;;;;;;;1.95;90.98;100492.81;4973636;28;20012;-91
2022/02/09 15:09:23;;;;;;;;;;;;;;;2.07;91.35;100491.13;4975119;28;20008;-88
2022/02/09 15:14:32;;;;;;;;;;;;;;;2.67;96.75;100484.25;4973876;28;19929;-86
2022/02/09 15:17:29;;;;;;;;;;;;;;;2.77;98.68;100489.50;4973425;28;20297;-88
2022/02/09 15:22:20;;;;;;;;;;;;;;;2.85;100.00;100487.75;4974791;28;20412;-87
2022/02/09 15:24:47;;;;;;;;;;;;;;;2.89;100.00;100489.50;4974708;28;19929;-88
2022/02/09 15:27:19;;;;;;;;;;;;;;;2.93;100.00;100491.22;4974654;28;19933;-88
2022/02/09 15:29:45;;;;;;;;;;;;;;;2.87;100.00;100486.00;4974811;28;19965;-87
2022/02/09 15:32:33;;;;;;;;;;;;;;;2.98;100.00;100488.59;4955581;28;20266;-89
2022/02/09 15:35:04;;;;;;;;;;;;;;;3.03;100.00;100493.00;4974800;28;20388;-88
2022/02/09 15:37:39;;;;;;;;;;;;;;;2.99;100.00;100492.97;4956410;28;19945;-88
2022/02/09 15:40:10;;;;;;;;;;;;;;;3.00;100.00;100493.00;4974499;28;19922;-88
2022/02/09 15:43:00;;;;;;;;;;;;;;;3.03;100.00;100493.00;4974765;28;19925;-90
2022/02/09 15:56:30;;;;;;;;;;;;;;;3.00;100.00;100485.13;4974862;28;19929;-87
2022/02/09 16:09:38;;;;;;;;;;;;;;;3.07;99.82;100481.63;4973412;28;19925;-87
2022/02/09 16:23:04;;;;;;;;;;;;;;;3.13;94.93;100479.84;4974410;28;20001;-87
2022/02/09 16:25:50;;;;;;;;;;;;;;;3.12;94.15;100467.66;4956505;28;19918;-87
2022/02/09 16:44:23;;;;;;;;;;;;;;;3.09;90.03;100466.81;4972386;28;19925;-88
2022/02/09 16:46:58;;;;;;;;;;;;;;;3.09;89.36;100458.94;4971244;28;19925;-90
2022/02/09 16:49:31;;;;;;;;;;;;;;;3.11;88.94;100458.03;4954020;28;19976;-88
2022/02/09 16:52:03;;;;;;;;;;;;;;;3.06;88.51;100463.28;4954850;28;19922;-89
2022/02/09 17:18:59;;;;;;;;;;;;;;;2.96;86.42;100459.81;4971935;28;19933;-89
2022/02/09 17:21:25;;;;;;;;;;;;;;;2.98;86.38;100470.28;4955347;28;19969;-88
2022/02/09 17:23:52;;;;;;;;;;;;;;;2.97;86.25;100472.03;4955330;28;19984;-88
2022/02/09 17:26:17;;;;;;;;;;;;;;;2.98;86.28;100465.03;4972527;28;19922;-88
2022/02/09 17:28:43;;;;;;;;;;;;;;;2.98;85.95;100462.44;4955221;28;19977;-87
2022/02/09 17:34:00;;;;;;;;;;;;;;;2.95;85.89;100473.75;4971919;28;19989;-88
2022/02/09 17:39:05;;;;;;;;;;;;;;;2.99;85.47;100469.44;4972245;28;19922;-83
2022/02/09 17:53:24;;;;;;;;;;;;;;;2.99;84.97;100474.66;4971221;28;19928;-83
2022/02/09 17:57:55;;;;;;;;;;;;;;;3.19;85.61;100464.13;4970893;28;20332;-85
2022/02/09 18:00:21;;;;;;;;;;;;;;;3.14;85.05;100464.16;4971467;28;20223;-85
2022/02/09 18:02:47;;;;;;;;;;;;;;;3.11;84.59;100458.03;4957508;28;19930;-85
2022/02/09 18:05:20;;;;;;;;;;;;;;;3.11;84.16;100463.28;4975680;28;19922;-85
2022/02/09 18:07:50;;;;;;;;;;;;;;;3.08;83.79;100469.41;4957116;28;19926;-86
2022/02/09 18:10:23;;;;;;;;;;;;;;;3.11;83.50;100463.28;4975757;28;19926;-85
2022/02/09 18:27:26;;;;;;;;;;;;;;;3.11;82.09;100465.91;4915238;29;20426;-85
2022/02/09 18:31:54;;;;;;;;;;;;;;;3.12;81.82;100460.66;4947000;28;19949;-85
2022/02/09 18:44:51;;;;;;;;;;;;;;;3.09;81.00;100458.94;4974549;28;19929;-88
2022/02/09 18:58:59;;;;;;;;;;;;;;;3.11;80.19;100452.81;4974414;28;19929;-86
2022/02/09 19:05:52;;;;;;;;;;;;;;;3.13;79.53;100451.94;4974188;28;19926;-87
2022/02/09 19:48:04;;;;;;;;;;;;;;;3.23;77.52;100427.47;4974556;28;19972;-86
2022/02/09 19:55:51;;;;;;;;;;;;;;;3.27;77.08;100429.22;4969244;28;20270;-84
2022/02/09 19:58:20;;;;;;;;;;;;;;;3.32;77.11;100431.81;4954789;28;19932;-86
2022/02/09 20:00:45;;;;;;;;;;;;;;;3.31;76.80;100429.22;4954280;28;19973;-85
2022/02/09 20:03:10;;;;;;;;;;;;;;;3.34;76.83;100432.69;4956820;28;19925;-85
2022/02/09 20:05:35;;;;;;;;;;;;;;;3.36;76.80;100430.06;4956750;28;19940;-85
2022/02/09 20:08:04;;;;;;;;;;;;;;;3.35;76.69;100431.81;4973927;28;19926;-85
2022/02/09 20:10:29;;;;;;;;;;;;;;;3.38;76.68;100430.91;4956358;28;19945;-85
2022/02/09 20:12:55;;;;;;;;;;;;;;;3.42;76.81;100427.44;4956275;28;20373;-86
2022/02/09 20:15:20;;;;;;;;;;;;;;;3.42;76.67;100422.19;4973087;28;20362;-85
2022/02/09 20:17:47;;;;;;;;;;;;;;;3.44;76.65;100423.03;4955422;28;19965;-86
2022/02/09 20:20:17;;;;;;;;;;;;;;;3.41;76.38;100426.53;4968667;28;19969;-87
2022/02/09 20:22:44;;;;;;;;;;;;;;;3.44;76.38;100423.91;4955521;28;19996;-86
2022/02/09 20:25:10;;;;;;;;;;;;;;;3.44;76.25;100421.28;4955661;28;19957;-87
2022/02/09 20:27:37;;;;;;;;;;;;;;;3.45;76.06;100423.03;4951820;28;19926;-86
2022/02/09 20:30:05;;;;;;;;;;;;;;;3.45;75.77;100427.41;4968497;28;19925;-85
2022/02/09 20:32:35;;;;;;;;;;;;;;;3.50;75.87;100425.63;4971997;28;19977;-86
2022/02/09 20:35:05;;;;;;;;;;;;;;;3.51;75.60;100422.16;4956170;28;20370;-85
2022/02/09 20:37:31;;;;;;;;;;;;;;;3.50;75.58;100419.53;4973253;28;19931;-86
2022/02/09 20:40:05;;;;;;;;;;;;;;;3.49;75.24;100425.66;4955606;28;19926;-85
2022/02/09 20:42:31;;;;;;;;;;;;;;;3.55;75.20;100423.00;4955805;28;20393;-85
2022/02/09 20:45:11;;;;;;;;;;;;;;;3.52;75.06;100425.63;4955486;28;19965;-88
2022/02/09 20:47:41;;;;;;;;;;;;;;;3.54;74.94;100422.16;4953320;28;19922;-85
2022/02/09 20:50:07;;;;;;;;;;;;;;;3.56;74.86;100415.13;4972952;28;19926;-86
2022/02/09 20:52:32;;;;;;;;;;;;;;;3.58;74.82;100413.38;4955753;28;20012;-85
2022/02/09 20:54:57;;;;;;;;;;;;;;;3.61;74.90;100408.13;4973398;28;19925;-86
2022/02/09 20:57:23;;;;;;;;;;;;;;;3.58;74.92;100413.38;4954772;28;19926;-87
2022/02/09 20:59:52;;;;;;;;;;;;;;;3.60;74.79;100410.75;4972783;28;19938;-84
2022/02/09 21:04:56;;;;;;;;;;;;;;;3.66;74.80;100402.88;4969210;28;19947;-85
2022/02/09 21:07:37;;;;;;;;;;;;;;;3.64;74.81;100408.09;4971969;28;19922;-84
2022/02/09 21:10:24;;;;;;;;;;;;;;;3.67;74.70;100407.25;4955190;28;20057;-85
2022/02/09 21:12:54;;;;;;;;;;;;;;;3.69;74.55;100412.47;4971925;28;19952;-85
2022/02/09 21:16:13;;;;;;;;;;;;;;;3.71;74.41;100405.47;4971207;28;20013;-84
2022/02/09 21:18:36;;;;;;;;;;;;;;;3.73;74.37;100395.84;4957354;28;19980;-83
2022/02/09 21:32:06;;;;;;;;;;;;;;;3.77;73.86;100387.94;4969462;28;20013;-85
2022/02/09 21:52:55;;;;;;;;;;;;;;;3.95;73.93;100365.97;4971950;28;19923;-85
2022/02/09 21:55:45;;;;;;;;;;;;;;;3.99;73.83;100366.84;4972589;28;20404;-85
2022/02/09 22:50:45;;;;;;;;;;;;;;;4.33;73.23;100320.25;4974812;28;19933;-84
2022/02/09 22:55:55;;;;;;;;;;;;;;;4.38;73.09;100319.34;4976233;28;20376;-83
